createdAt,value
2019-03-27T00:01:50.078Z,5.41
2019-03-27T00:04:25.052Z,5.45
2019-03-27T00:06:59.941Z,5.54
2019-03-27T00:09:32.731Z,5.58
2019-03-27T00:12:07.903Z,5.68
2019-03-27T00:14:39.932Z,5.70
2019-03-27T00:17:12.284Z,5.67
2019-03-27T00:19:51.995Z,5.66
2019-03-27T00:22:25.803Z,5.59
2019-03-27T00:24:58.147Z,5.54
2019-03-27T00:27:32.354Z,5.48
2019-03-27T00:30:06.424Z,5.43
2019-03-27T00:32:41.062Z,5.48
2019-03-27T00:35:13.256Z,5.52
2019-03-27T00:37:45.586Z,5.59
2019-03-27T00:40:20.565Z,5.64
2019-03-27T00:42:52.683Z,5.68
2019-03-27T00:45:26.953Z,5.63
2019-03-27T00:47:58.727Z,5.51
2019-03-27T00:50:30.955Z,5.32
2019-03-27T00:53:03.122Z,5.25
2019-03-27T00:55:35.297Z,5.16
2019-03-27T00:58:07.541Z,5.08
2019-03-27T01:01:12.531Z,5.01
2019-03-27T01:03:44.766Z,4.96
2019-03-27T01:06:17.090Z,4.89
2019-03-27T01:08:49.211Z,4.85
2019-03-27T01:11:21.286Z,4.84
2019-03-27T01:13:53.371Z,4.87
2019-03-27T01:16:25.527Z,4.97
2019-03-27T01:18:57.671Z,5.05
2019-03-27T01:21:29.803Z,5.22
2019-03-27T01:24:01.847Z,5.31
2019-03-27T01:26:33.938Z,5.47
2019-03-27T01:29:06.165Z,5.55
2019-03-27T01:31:38.392Z,5.87
2019-03-27T01:34:10.605Z,5.93
2019-03-27T01:36:42.774Z,6.05
2019-03-27T01:39:14.945Z,6.20
2019-03-27T01:41:47.113Z,6.22
2019-03-27T01:44:19.203Z,6.28
2019-03-27T01:46:51.763Z,6.19
2019-03-27T01:49:23.807Z,6.15
2019-03-27T01:51:55.865Z,6.28
2019-03-27T01:54:27.981Z,6.12
2019-03-27T01:56:59.989Z,6.05
2019-03-27T01:59:32.323Z,5.92
2019-03-27T02:02:04.454Z,5.81
2019-03-27T02:04:36.482Z,5.77
2019-03-27T02:07:08.604Z,5.85
2019-03-27T02:09:40.763Z,5.96
2019-03-27T02:12:12.836Z,5.99
2019-03-27T02:14:45.060Z,5.83
2019-03-27T02:17:17.203Z,5.58
2019-03-27T02:19:49.363Z,5.56
2019-03-27T02:22:21.397Z,5.55
2019-03-27T02:24:53.554Z,5.36
2019-03-27T02:27:25.638Z,5.14
2019-03-27T02:29:57.737Z,4.91
2019-03-27T02:32:29.771Z,4.86
2019-03-27T02:35:01.931Z,4.64
2019-03-27T02:37:33.963Z,4.44
2019-03-27T02:40:06.567Z,4.26
2019-03-27T02:42:38.655Z,4.06
2019-03-27T02:45:11.720Z,3.92
2019-03-27T02:47:43.790Z,3.73
2019-03-27T02:50:15.858Z,3.64
2019-03-27T02:52:48.006Z,3.60
2019-03-27T02:55:19.982Z,3.57
2019-03-27T02:57:52.048Z,3.45
2019-03-27T03:00:24.328Z,3.40
2019-03-27T03:02:56.453Z,3.38
2019-03-27T03:05:28.560Z,3.58
2019-03-27T03:08:00.655Z,3.58
2019-03-27T03:10:32.815Z,3.63
2019-03-27T03:13:04.933Z,3.68
2019-03-27T03:15:37.080Z,3.65
2019-03-27T03:18:09.203Z,3.63
2019-03-27T03:20:41.357Z,3.68
2019-03-27T03:23:13.443Z,3.68
2019-03-27T03:25:45.637Z,3.71
2019-03-27T03:28:17.779Z,3.84
2019-03-27T03:30:49.960Z,3.93
2019-03-27T03:33:22.143Z,4.15
2019-03-27T03:35:54.255Z,4.38
2019-03-27T03:38:26.357Z,4.52
2019-03-27T03:40:58.333Z,4.84
2019-03-27T03:43:30.424Z,5.12
2019-03-27T03:46:02.591Z,5.18
2019-03-27T03:48:34.671Z,5.15
2019-03-27T03:51:08.461Z,5.22
2019-03-27T03:53:40.433Z,5.25
2019-03-27T03:56:15.768Z,5.22
2019-03-27T03:58:48.880Z,5.11
2019-03-27T04:01:25.904Z,5.04
2019-03-27T04:03:59.439Z,5.09
2019-03-27T04:06:31.546Z,5.10
2019-03-27T04:09:03.829Z,4.98
2019-03-27T04:11:35.914Z,4.97
2019-03-27T04:14:07.952Z,4.86
2019-03-27T04:16:40.113Z,4.76
2019-03-27T04:19:12.208Z,4.90
2019-03-27T04:21:44.340Z,4.99
2019-03-27T04:24:16.438Z,4.92
2019-03-27T04:26:48.645Z,4.88
2019-03-27T04:29:20.879Z,4.78
2019-03-27T04:31:53.069Z,4.74
2019-03-27T04:34:25.239Z,4.69
2019-03-27T04:36:57.376Z,4.55
2019-03-27T04:39:29.457Z,4.47
2019-03-27T04:42:01.635Z,4.30
2019-03-27T04:44:33.675Z,4.08
2019-03-27T04:47:05.802Z,3.96
2019-03-27T04:52:13.988Z,3.71
2019-03-27T04:54:46.030Z,3.63
2019-03-27T04:57:18.115Z,3.50
2019-03-27T04:59:50.135Z,3.50
2019-03-27T05:02:22.287Z,3.39
2019-03-27T05:04:55.083Z,3.29
2019-03-27T05:07:27.297Z,3.13
2019-03-27T05:09:59.479Z,3.04
2019-03-27T05:12:31.587Z,2.92
2019-03-27T05:15:03.726Z,2.86
2019-03-27T05:17:45.746Z,2.77
2019-03-27T05:20:11.063Z,2.82
2019-03-27T05:22:43.068Z,2.86
2019-03-27T05:25:15.144Z,2.79
2019-03-27T05:27:47.371Z,2.76
2019-03-27T05:30:29.126Z,2.76
2019-03-27T05:33:01.492Z,2.76
2019-03-27T05:35:33.742Z,2.77
2019-03-27T05:38:05.985Z,2.80
2019-03-27T05:40:38.851Z,2.86
2019-03-27T05:43:11.003Z,2.99
2019-03-27T05:45:43.178Z,3.04
2019-03-27T05:48:15.337Z,3.17
2019-03-27T05:50:47.501Z,3.29
2019-03-27T05:53:20.068Z,3.31
2019-03-27T05:55:52.229Z,3.30
2019-03-27T05:58:24.319Z,3.26
2019-03-27T06:00:56.498Z,3.19
2019-03-27T06:03:28.556Z,3.24
2019-03-27T06:06:00.672Z,3.26
2019-03-27T06:08:32.803Z,3.19
2019-03-27T06:11:04.994Z,3.11
2019-03-27T06:13:37.266Z,3.07
2019-03-27T06:16:09.518Z,3.07
2019-03-27T06:18:41.696Z,3.34
2019-03-27T06:21:13.822Z,3.35
2019-03-27T06:23:45.914Z,3.40
2019-03-27T06:26:18.022Z,3.49
2019-03-27T06:28:50.388Z,3.71
2019-03-27T06:31:22.500Z,4.06
2019-03-27T06:33:54.640Z,4.29
2019-03-27T06:36:26.809Z,4.49
2019-03-27T06:38:58.919Z,4.77
2019-03-27T06:41:31.079Z,5.19
2019-03-27T06:44:03.325Z,5.38
2019-03-27T06:46:35.503Z,5.47
2019-03-27T06:49:08.013Z,5.93
2019-03-27T06:51:40.651Z,6.05
2019-03-27T06:54:13.003Z,6.17
2019-03-27T06:56:45.146Z,6.46
2019-03-27T06:59:17.308Z,6.96
2019-03-27T07:01:49.324Z,7.39
2019-03-27T07:04:21.476Z,7.64
2019-03-27T07:06:55.000Z,7.91
2019-03-27T07:09:27.216Z,8.25
2019-03-27T07:11:59.235Z,8.30
2019-03-27T07:14:31.341Z,8.37
2019-03-27T07:17:03.360Z,8.46
2019-03-27T07:19:35.543Z,8.36
2019-03-27T07:22:07.581Z,8.53
2019-03-27T07:24:39.661Z,8.65
2019-03-27T07:27:11.736Z,8.94
2019-03-27T07:29:43.886Z,9.25
2019-03-27T07:32:15.882Z,9.41
2019-03-27T07:34:47.940Z,9.44
2019-03-27T07:37:20.038Z,9.21
2019-03-27T07:39:52.116Z,9.37
2019-03-27T07:42:24.277Z,9.31
2019-03-27T07:44:56.344Z,9.15
2019-03-27T07:47:28.433Z,8.87
2019-03-27T07:50:00.452Z,8.85
2019-03-27T07:52:32.565Z,8.67
2019-03-27T07:55:18.400Z,8.66
2019-03-27T07:57:39.102Z,8.79
2019-03-27T08:00:15.114Z,8.72
2019-03-27T08:02:47.398Z,8.22
2019-03-27T08:05:19.607Z,8.38
2019-03-27T08:07:51.769Z,8.51
2019-03-27T08:10:23.880Z,8.70
2019-03-27T08:12:56.119Z,8.74
2019-03-27T08:15:28.228Z,8.60
2019-03-27T08:18:00.385Z,8.90
2019-03-27T08:20:32.762Z,9.08
2019-03-27T08:23:05.006Z,9.06
2019-03-27T08:25:37.303Z,8.76
2019-03-27T08:28:09.808Z,8.40
2019-03-27T08:30:42.075Z,8.42
2019-03-27T08:33:14.191Z,8.36
2019-03-27T08:35:46.297Z,8.65
2019-03-27T08:38:18.428Z,8.86
2019-03-27T08:40:50.650Z,8.84
2019-03-27T08:43:25.443Z,8.55
2019-03-27T08:45:58.040Z,8.79
2019-03-27T08:48:30.374Z,9.11
2019-03-27T08:51:02.603Z,9.37
2019-03-27T08:53:34.925Z,9.62
2019-03-27T08:56:07.307Z,9.95
2019-03-27T08:58:39.567Z,10.28
2019-03-27T09:01:12.062Z,10.34
2019-03-27T09:03:44.323Z,10.67
2019-03-27T09:06:16.703Z,11.12
2019-03-27T09:08:51.913Z,12.34
2019-03-27T09:11:27.669Z,13.70
2019-03-27T09:14:05.527Z,14.08
2019-03-27T09:16:37.962Z,13.65
2019-03-27T09:21:47.071Z,14.91
2019-03-27T09:24:23.438Z,16.13
2019-03-27T09:26:55.711Z,16.41
2019-03-27T09:29:28.177Z,16.33
2019-03-27T09:32:00.603Z,15.96
2019-03-27T09:34:35.891Z,15.12
2019-03-27T09:37:09.662Z,14.18
2019-03-27T09:39:42.021Z,14.06
2019-03-27T09:42:17.337Z,14.89
2019-03-27T09:44:49.875Z,13.99
2019-03-27T09:47:22.721Z,13.01
2019-03-27T09:49:57.420Z,12.58
2019-03-27T09:52:30.375Z,12.57
2019-03-27T09:55:02.844Z,12.88
2019-03-27T09:57:35.033Z,12.94
2019-03-27T10:00:08.587Z,12.64
2019-03-27T10:02:41.159Z,12.43
2019-03-27T10:05:13.684Z,12.35
2019-03-27T10:07:45.975Z,12.04
2019-03-27T10:10:18.528Z,12.52
2019-03-27T10:12:50.764Z,12.12
2019-03-27T10:15:23.006Z,12.16
2019-03-27T10:17:55.250Z,12.42
2019-03-27T10:20:27.753Z,12.77
2019-03-27T10:22:59.911Z,13.27
2019-03-27T10:25:32.406Z,13.16
2019-03-27T10:28:05.877Z,13.41
2019-03-27T10:30:38.452Z,13.39
2019-03-27T10:33:10.707Z,13.03
2019-03-27T10:35:42.971Z,12.98
2019-03-27T10:38:18.029Z,12.80
2019-03-27T10:40:50.441Z,12.16
2019-03-27T10:43:22.854Z,12.23
2019-03-27T10:45:54.976Z,12.54
2019-03-27T10:48:27.192Z,12.95
2019-03-27T10:50:59.315Z,12.93
2019-03-27T10:53:32.164Z,12.58
2019-03-27T10:56:04.280Z,12.48
2019-03-27T10:58:36.448Z,12.43
2019-03-27T11:01:09.784Z,12.47
2019-03-27T11:03:41.940Z,12.56
2019-03-27T11:06:14.182Z,12.69
2019-03-27T11:08:50.890Z,12.70
2019-03-27T11:11:25.740Z,12.68
2019-03-27T11:13:58.406Z,12.83
2019-03-27T11:16:30.611Z,13.28
2019-03-27T11:19:02.761Z,12.93
2019-03-27T11:21:34.842Z,12.56
2019-03-27T11:24:06.972Z,12.56
2019-03-27T11:26:39.070Z,12.85
2019-03-27T11:29:11.509Z,13.58
2019-03-27T11:31:43.722Z,13.94
2019-03-27T11:34:16.003Z,13.30
2019-03-27T11:36:48.221Z,12.80
2019-03-27T11:39:20.462Z,12.96
2019-03-27T11:41:52.606Z,12.73
2019-03-27T11:44:25.055Z,12.31
2019-03-27T11:46:57.086Z,12.31
2019-03-27T11:49:29.100Z,12.87
2019-03-27T11:52:01.479Z,13.14
2019-03-27T11:54:33.624Z,12.67
2019-03-27T11:57:05.788Z,12.28
2019-03-27T11:59:37.932Z,12.33
2019-03-27T12:02:25.618Z,12.59
2019-03-27T12:04:57.814Z,13.03
2019-03-27T12:07:29.927Z,12.69
2019-03-27T12:10:02.205Z,12.63
2019-03-27T12:12:34.435Z,13.00
2019-03-27T12:15:07.602Z,12.69
2019-03-27T12:17:39.776Z,12.93
2019-03-27T12:20:12.337Z,13.28
2019-03-27T12:22:56.933Z,13.45
2019-03-27T12:25:18.280Z,13.29
2019-03-27T12:27:50.413Z,13.48
2019-03-27T12:30:22.688Z,13.59
2019-03-27T12:32:54.904Z,13.36
2019-03-27T12:35:27.254Z,13.31
2019-03-27T12:37:59.328Z,13.55
2019-03-27T12:40:31.550Z,13.52
2019-03-27T12:43:05.312Z,13.71
2019-03-27T12:45:37.785Z,13.11
2019-03-27T12:48:10.368Z,13.46
2019-03-27T12:50:44.288Z,13.28
2019-03-27T12:53:16.298Z,13.37
2019-03-27T12:55:48.507Z,13.44
2019-03-27T12:58:25.047Z,13.67
2019-03-27T13:00:57.172Z,13.60
2019-03-27T13:03:32.235Z,13.49
2019-03-27T13:06:04.420Z,13.51
2019-03-27T13:08:36.554Z,13.10
2019-03-27T13:11:08.644Z,12.91
2019-03-27T13:13:40.721Z,12.93
2019-03-27T13:16:12.961Z,13.61
2019-03-27T13:18:45.135Z,13.82
2019-03-27T13:21:26.269Z,13.67
2019-03-27T13:23:51.185Z,13.84
2019-03-27T13:26:23.297Z,13.46
2019-03-27T13:28:55.386Z,13.86
2019-03-27T13:31:30.569Z,14.48
2019-03-27T13:34:02.668Z,14.59
2019-03-27T13:36:36.047Z,15.07
2019-03-27T13:39:10.664Z,14.69
2019-03-27T13:41:42.896Z,14.61
2019-03-27T13:44:15.009Z,14.63
2019-03-27T13:46:48.171Z,14.51
2019-03-27T13:49:26.095Z,14.62
2019-03-27T13:52:05.501Z,14.63
2019-03-27T13:54:37.998Z,14.67
2019-03-27T13:57:10.280Z,14.35
2019-03-27T13:59:42.425Z,13.97
2019-03-27T14:02:14.798Z,13.41
2019-03-27T14:04:47.238Z,13.20
2019-03-27T14:07:19.755Z,13.46
2019-03-27T14:09:52.121Z,13.95
2019-03-27T14:12:24.563Z,13.86
2019-03-27T14:14:56.931Z,13.80
2019-03-27T14:17:29.177Z,13.59
2019-03-27T14:20:01.541Z,14.20
2019-03-27T14:22:33.695Z,14.69
2019-03-27T14:25:06.637Z,14.36
2019-03-27T14:27:38.892Z,13.89
2019-03-27T14:30:15.836Z,14.28
2019-03-27T14:32:48.059Z,14.74
2019-03-27T14:35:20.249Z,14.35
2019-03-27T14:37:52.500Z,13.90
2019-03-27T14:40:25.098Z,13.89
2019-03-27T14:42:57.707Z,13.59
2019-03-27T14:45:30.174Z,13.64
2019-03-27T14:48:02.594Z,13.94
2019-03-27T14:50:35.366Z,13.53
2019-03-27T14:53:07.710Z,13.57
2019-03-27T14:55:40.197Z,13.73
2019-03-27T14:58:12.551Z,13.41
2019-03-27T15:00:44.825Z,13.56
2019-03-27T15:03:17.053Z,13.57
2019-03-27T15:05:49.175Z,13.82
2019-03-27T15:08:21.548Z,13.88
2019-03-27T15:10:54.070Z,13.81
2019-03-27T15:13:26.632Z,13.39
2019-03-27T15:15:58.868Z,13.36
2019-03-27T15:18:31.141Z,13.27
2019-03-27T15:21:06.174Z,13.32
2019-03-27T15:23:38.707Z,13.38
2019-03-27T15:26:10.991Z,13.42
2019-03-27T15:28:43.270Z,13.31
2019-03-27T15:31:20.791Z,13.17
2019-03-27T15:33:49.205Z,13.13
2019-03-27T15:36:21.423Z,13.05
2019-03-27T15:38:53.663Z,12.92
2019-03-27T15:41:26.130Z,12.91
2019-03-27T15:43:58.244Z,13.03
2019-03-27T15:46:30.461Z,13.04
2019-03-27T15:49:02.692Z,12.99
2019-03-27T15:51:35.144Z,13.06
2019-03-27T15:54:07.306Z,13.03
2019-03-27T15:56:39.561Z,12.96
2019-03-27T15:59:11.901Z,12.80
2019-03-27T16:01:44.382Z,12.95
2019-03-27T16:04:16.765Z,13.18
2019-03-27T16:06:49.176Z,13.12
2019-03-27T16:09:21.661Z,13.02
2019-03-27T16:11:54.044Z,13.10
2019-03-27T16:14:26.399Z,13.12
2019-03-27T16:17:12.808Z,12.95
2019-03-27T16:19:33.773Z,12.92
2019-03-27T16:22:06.228Z,12.89
2019-03-27T16:24:38.409Z,13.04
2019-03-27T16:27:10.732Z,13.35
2019-03-27T16:29:43.047Z,13.38
2019-03-27T16:32:15.438Z,13.23
2019-03-27T16:34:51.020Z,13.12
2019-03-27T16:37:23.466Z,12.90
2019-03-27T16:39:55.735Z,12.85
2019-03-27T16:42:28.147Z,12.94
2019-03-27T16:47:37.139Z,12.91
2019-03-27T16:50:11.199Z,13.00
2019-03-27T16:52:43.640Z,13.22
2019-03-27T16:55:15.926Z,13.26
2019-03-27T16:57:51.264Z,13.07
2019-03-27T17:00:22.451Z,12.89
2019-03-27T17:02:54.719Z,12.64
2019-03-27T17:05:26.960Z,12.34
2019-03-27T17:07:59.349Z,12.21
2019-03-27T17:10:31.522Z,12.13
2019-03-27T17:13:03.673Z,12.03
2019-03-27T17:15:35.984Z,11.80
2019-03-27T17:18:08.368Z,11.80
2019-03-27T17:20:40.494Z,11.78
2019-03-27T17:23:18.528Z,11.72
2019-03-27T17:25:46.832Z,11.69
2019-03-27T17:28:19.095Z,11.61
2019-03-27T17:30:51.550Z,11.59
2019-03-27T17:33:23.648Z,11.47
2019-03-27T17:36:01.545Z,11.42
2019-03-27T17:38:34.070Z,11.40
2019-03-27T17:41:06.234Z,11.12
2019-03-27T17:43:38.350Z,11.16
2019-03-27T17:46:10.651Z,11.09
2019-03-27T17:48:43.095Z,11.03
2019-03-27T17:51:15.130Z,10.96
2019-03-27T17:53:47.394Z,10.93
2019-03-27T17:56:20.080Z,10.88
2019-03-27T17:58:52.541Z,10.63
2019-03-27T18:01:24.848Z,10.40
2019-03-27T18:03:56.930Z,10.28
2019-03-27T18:06:29.103Z,10.28
2019-03-27T18:09:01.177Z,10.32
2019-03-27T18:11:35.439Z,10.26
2019-03-27T18:16:40.449Z,10.34
2019-03-27T18:19:12.884Z,10.35
2019-03-27T18:21:48.126Z,10.34
2019-03-27T18:24:24.339Z,10.29
2019-03-27T18:26:56.605Z,10.43
2019-03-27T18:29:28.738Z,10.53
2019-03-27T18:32:00.987Z,10.49
2019-03-27T18:34:38.130Z,10.51
2019-03-27T18:37:12.858Z,10.61
2019-03-27T18:39:48.803Z,10.78
2019-03-27T18:42:24.157Z,10.78
2019-03-27T18:44:56.462Z,10.76
2019-03-27T18:47:28.682Z,10.75
2019-03-27T18:50:02.471Z,10.76
2019-03-27T18:52:34.588Z,10.73
2019-03-27T18:55:07.343Z,10.84
2019-03-27T18:57:39.531Z,10.68
2019-03-27T19:00:13.503Z,10.57
2019-03-27T19:02:45.707Z,10.61
2019-03-27T19:05:18.183Z,10.74
2019-03-27T19:07:50.340Z,10.66
2019-03-27T19:10:22.594Z,10.49
2019-03-27T19:12:55.825Z,10.53
2019-03-27T19:15:28.035Z,10.51
2019-03-27T19:18:00.348Z,10.52
2019-03-27T19:20:40.955Z,10.38
2019-03-27T19:23:13.162Z,10.39
2019-03-27T19:25:45.446Z,10.36
2019-03-27T19:28:17.493Z,10.39
2019-03-27T19:30:49.679Z,10.38
2019-03-27T19:33:27.809Z,10.42
2019-03-27T19:36:10.125Z,10.42
2019-03-27T19:38:49.673Z,10.42
2019-03-27T19:41:21.897Z,10.46
2019-03-27T19:43:54.072Z,10.53
2019-03-27T19:46:26.240Z,10.65
2019-03-27T19:48:58.571Z,10.61
2019-03-27T19:51:30.743Z,10.52
2019-03-27T19:54:04.091Z,10.55
2019-03-27T19:56:36.201Z,10.59
2019-03-27T19:59:08.384Z,10.71
2019-03-27T20:01:40.537Z,10.67
2019-03-27T20:04:12.658Z,10.58
2019-03-27T20:06:54.201Z,10.50
2019-03-27T20:09:26.369Z,10.52
2019-03-27T20:11:58.637Z,10.50
2019-03-27T20:14:33.259Z,10.49
2019-03-27T20:17:05.678Z,10.53
2019-03-27T20:19:43.531Z,10.48
2019-03-27T20:22:15.617Z,10.35
2019-03-27T20:24:47.664Z,10.39
2019-03-27T20:27:20.153Z,10.43
2019-03-27T20:29:52.221Z,10.56
2019-03-27T20:32:24.473Z,10.56
2019-03-27T20:34:57.639Z,10.41
2019-03-27T20:37:29.812Z,10.36
2019-03-27T20:40:01.981Z,10.46
2019-03-27T20:42:34.125Z,10.62
2019-03-27T20:45:06.727Z,10.62
2019-03-27T20:47:38.963Z,10.53
2019-03-27T20:50:11.834Z,10.57
2019-03-27T20:52:43.952Z,10.64
2019-03-27T20:55:29.319Z,10.67
2019-03-27T20:57:50.220Z,10.74
2019-03-27T21:00:22.558Z,10.65
2019-03-27T21:02:54.735Z,10.64
2019-03-27T21:05:28.946Z,10.56
2019-03-27T21:08:01.212Z,10.59
2019-03-27T21:10:33.516Z,10.43
2019-03-27T21:13:09.800Z,10.42
2019-03-27T21:15:41.919Z,10.48
2019-03-27T21:18:14.232Z,10.43
2019-03-27T21:20:46.364Z,10.45
2019-03-27T21:23:18.421Z,10.45
2019-03-27T21:25:51.627Z,10.53
2019-03-27T21:28:25.315Z,10.46
2019-03-27T21:30:57.702Z,10.28
2019-03-27T21:33:30.139Z,10.27
2019-03-27T21:36:03.547Z,10.47
2019-03-27T21:38:35.822Z,10.34
2019-03-27T21:41:08.227Z,10.39
2019-03-27T21:43:40.490Z,10.33
2019-03-27T21:46:13.245Z,10.35
2019-03-27T21:48:48.472Z,10.46
2019-03-27T21:51:23.565Z,10.46
2019-03-27T21:53:55.902Z,10.50
2019-03-27T21:56:28.116Z,10.46
2019-03-27T21:59:02.518Z,10.50
2019-03-27T22:01:34.046Z,10.35
2019-03-27T22:04:06.258Z,10.42
2019-03-27T22:06:38.723Z,10.42
2019-03-27T22:09:11.179Z,10.36
2019-03-27T22:11:43.373Z,10.32
2019-03-27T22:14:15.433Z,10.40
2019-03-27T22:16:47.636Z,10.35
2019-03-27T22:19:19.776Z,10.33
2019-03-27T22:22:02.793Z,10.33
2019-03-27T22:24:34.890Z,10.34
2019-03-27T22:27:07.108Z,10.29
2019-03-27T22:29:39.226Z,10.27
2019-03-27T22:32:11.442Z,10.26
2019-03-27T22:34:44.452Z,10.21
2019-03-27T22:37:16.744Z,10.21
2019-03-27T22:39:48.852Z,10.14
2019-03-27T22:42:21.003Z,10.08
2019-03-27T22:44:53.153Z,10.19
2019-03-27T22:47:25.645Z,10.16
2019-03-27T22:49:57.738Z,10.13
2019-03-27T22:52:29.907Z,10.18
2019-03-27T22:55:02.020Z,10.17
2019-03-27T22:57:34.179Z,10.10
2019-03-27T23:00:07.625Z,10.03
2019-03-27T23:02:40.848Z,10.00
2019-03-27T23:05:16.302Z,9.92
2019-03-27T23:07:48.449Z,9.99
2019-03-27T23:10:20.627Z,9.95
2019-03-27T23:12:55.891Z,9.98
2019-03-27T23:15:30.623Z,9.94
2019-03-27T23:18:02.785Z,9.86
2019-03-27T23:20:34.926Z,9.89
2019-03-27T23:23:07.032Z,9.81
2019-03-27T23:25:39.147Z,9.89
2019-03-27T23:28:11.240Z,9.95
2019-03-27T23:30:43.306Z,9.84
2019-03-27T23:33:15.559Z,9.92
2019-03-27T23:35:47.677Z,10.01
2019-03-27T23:38:19.849Z,9.99
2019-03-27T23:40:51.962Z,9.93
2019-03-27T23:43:24.102Z,10.03
2019-03-27T23:45:56.287Z,10.02
2019-03-27T23:48:28.406Z,9.92
2019-03-27T23:51:00.476Z,9.83
2019-03-27T23:53:32.586Z,9.68
2019-03-27T23:56:15.828Z,9.71
2019-03-27T23:58:38.688Z,9.59
